RJTR(METAR)
04/28 15:55
METAR RJTR 280655Z VRB03KT 10SM SCT095 18/06 A2996 RMK AO2 SLP043
LAST=
戻る
トップページへ戻る
IMOC Co,.Ltd.